1887 Severe Cyclonic Storm NOT_NAMED (1887141N16092)


IBTrACS version v04r00. Visit IBTrACS website for data access.
Please direct all questions to the IBTrACS Q and A forum

Storm track - Intensity - Wind Radii - Intensity Data - Source Data - All data

Summary Information

Storm ID 1887141N16092
Start May 21 00Z
Landfall May 25 21Z
Max Intensity 64 kt (May 21 03Z)
End May 28 03Z
ATCF IDs
Track status Best track data.

Storm track plot

Map of storm track

Intensity plots

Map of storm track

Radial wind information

No radial wind information for this storm


Position and Intensity Table

BASIN ISO_TIME_________ NATURE LAT LON DS824 WIND
degrees north degrees east kts
NI 1887-05-21 00:00:00 TS 15.90 92.20 64
NI 03:00:00 TS 15.93 92.13 64
NI 06:00:00 TS 15.99 92.05 64
NI 09:00:00 TS 16.07 91.98 64
NI 12:00:00 TS 16.16 91.93 64
NI 15:00:00 TS 16.25 91.88 64
NI 18:00:00 TS 16.34 91.82 64
NI 21:00:00 TS 16.40 91.78 64
NI 1887-05-22 00:00:00 TS 16.46 91.73 64
NI 03:00:00 TS 16.52 91.65 64
NI 06:00:00 TS 16.59 91.57 64
NI 09:00:00 TS 16.67 91.51 64
NI 12:00:00 TS 16.76 91.44 64
NI 15:00:00 TS 16.85 91.35 64
NI 18:00:00 TS 16.95 91.25 64
NI 21:00:00 TS 17.05 91.15 64
NI 1887-05-23 00:00:00 TS 17.15 91.05 64
NI 03:00:00 TS 17.25 90.95 64
NI 06:00:00 TS 17.35 90.85 64
NI 09:00:00 TS 17.44 90.75 64
NI 12:00:00 TS 17.54 90.65 64
NI 15:00:00 TS 17.67 90.55 64
NI 18:00:00 TS 17.81 90.46 64
NI 21:00:00 TS 17.96 90.37 64
NI 1887-05-24 00:00:00 TS 18.11 90.26 64
NI 03:00:00 TS 18.30 90.11 64
NI 06:00:00 TS 18.49 89.92 64
NI 09:00:00 TS 18.69 89.73 64
NI 12:00:00 TS 18.90 89.52 64
NI 15:00:00 TS 19.10 89.28 64
NI 18:00:00 TS 19.30 89.03 64
NI 21:00:00 TS 19.50 88.78 64
NI 1887-05-25 00:00:00 TS 19.70 88.53 64
NI 03:00:00 TS 19.90 88.27 64
NI 06:00:00 TS 20.11 88.02 64
NI 09:00:00 TS 20.35 87.77 64
NI 12:00:00 TS 20.59 87.52 64
NI 15:00:00 TS 20.80 87.27 56
NI 18:00:00 TS 21.01 87.02 49
NI 21:00:00 TS 21.24 86.77 41
NI 1887-05-26 00:00:00 TS 21.48 86.52 34
NI 03:00:00 TS 21.72 86.27 33
NI 06:00:00 TS 21.97 86.02 32
NI 09:00:00 TS 22.25 85.79 31
NI 12:00:00 TS 22.54 85.59 30
NI 15:00:00 TS 22.87 85.44 30
NI 18:00:00 TS 23.25 85.33 30
NI 21:00:00 TS 23.67 85.26 30
NI 1887-05-27 00:00:00 TS 24.05 85.21 30
NI 03:00:00 TS 24.28 85.20 30
NI 06:00:00 TS 24.38 85.19 30
NI 09:00:00 TS 24.44 85.19 30
NI 12:00:00 TS 24.49 85.20 30
NI 15:00:00 TS 24.55 85.20 30
NI 18:00:00 TS 24.61 85.19 30
NI 21:00:00 TS 24.68 85.16 30
NI 1887-05-28 00:00:00 TS 24.74 85.12 30
NI 03:00:00 NR 24.80 85.10

Source Information

Agency Information
USA
TOKYO
CMA
HKO
NEWDELHI
REUNION
BOM
NADI
WELLINGTON
DS824 n_ind.dat:107:NOT NAMED
TD9636 cons_worldwide_trop_cyclone_18710101-19891231-004:Line=1060
TD9635
NEUMANN
MLC

All available IBTrACS Data

SEASON BASIN SUBBASIN ISO_TIME_________ NATURE LAT LON DIST2LAND LANDFALL IFLAG USA SSHS DS824 LAT DS824 LON DS824 STAGE DS824 WIND TD9636 LAT TD9636 LON TD9636 STAGE STORM SPEED STORM DIR
Year degrees north degrees east km km 1 degrees north degrees east kts degrees north degrees east kts degrees
1887 NI BB 1887-05-21 00:00:00 TS 15.90 92.20 214 214 _________O____ -1 15.90 92.20 TC 64 2 293
1887 NI BB 03:00:00 TS 15.93 92.13 224 224 _________PO___ -1 15.94 92.09 TC 64 15.90 92.20 4 2 301
1887 NI BB 06:00:00 TS 15.99 92.05 235 235 _________OP___ -1 16.00 92.00 TC 64 15.98 92.12 4 2 317
1887 NI BB 09:00:00 TS 16.07 91.98 235 235 _________PP___ -1 16.09 91.94 TC 64 16.05 92.04 4 2 327
1887 NI BB 12:00:00 TS 16.16 91.93 246 246 _________OP___ -1 16.20 91.90 TC 64 16.13 91.96 4 2 329
1887 NI BB 15:00:00 TS 16.25 91.88 248 248 _________PO___ -1 16.31 91.85 TC 64 16.20 91.90 4 2 328
1887 NI BB 18:00:00 TS 16.34 91.82 258 258 _________OP___ -1 16.40 91.80 TC 64 16.27 91.85 4 2 330
1887 NI BB 21:00:00 TS 16.40 91.78 260 260 _________PP___ -1 16.46 91.76 TC 64 16.35 91.80 4 2 322
1887 NI BB 1887-05-22 00:00:00 TS 16.46 91.73 272 272 _________OP___ -1 16.50 91.70 TC 64 16.42 91.75 4 2 313
1887 NI BB 03:00:00 TS 16.52 91.65 272 272 _________PO___ -1 16.54 91.60 TC 64 16.50 91.70 4 2 308
1887 NI BB 06:00:00 TS 16.59 91.57 285 285 _________OP___ -1 16.60 91.50 TC 64 16.57 91.64 4 2 316
1887 NI BB 09:00:00 TS 16.67 91.51 298 298 _________PP___ -1 16.69 91.45 TC 64 16.64 91.56 4 2 326
1887 NI BB 12:00:00 TS 16.76 91.44 310 310 _________OP___ -1 16.80 91.40 TC 64 16.72 91.49 4 2 321
1887 NI BB 15:00:00 TS 16.85 91.35 312 312 _________PO___ -1 16.90 91.31 TC 64 16.80 91.40 4 3 316
1887 NI BB 18:00:00 TS 16.95 91.25 322 322 _________OP___ -1 17.00 91.20 TC 64 16.89 91.31 4 3 316
1887 NI BB 21:00:00 TS 17.05 91.15 334 334 _________PP___ -1 17.10 91.10 TC 64 16.99 91.21 4 3 316
1887 NI BB 1887-05-23 00:00:00 TS 17.15 91.05 347 347 _________OP___ -1 17.20 91.00 TC 64 17.10 91.10 4 3 316
1887 NI BB 03:00:00 TS 17.25 90.95 342 349 _________PO___ -1 17.30 90.90 TC 64 17.20 91.00 4 3 316
1887 NI BB 06:00:00 TS 17.35 90.85 360 354 _________OP___ -1 17.40 90.80 TC 64 17.29 90.90 4 3 315
1887 NI BB 09:00:00 TS 17.44 90.75 363 358 _________PP___ -1 17.49 90.70 TC 64 17.38 90.80 4 3 316
1887 NI BB 12:00:00 TS 17.54 90.65 367 358 _________OP___ -1 17.60 90.60 TC 64 17.49 90.70 4 3 321
1887 NI BB 15:00:00 TS 17.67 90.55 358 358 _________PO___ -1 17.74 90.50 TC 64 17.60 90.60 4 3 326
1887 NI BB 18:00:00 TS 17.81 90.46 360 360 _________OP___ -1 17.90 90.40 TC 64 17.73 90.52 4 3 329
1887 NI BB 21:00:00 TS 17.96 90.37 352 352 _________PP___ -1 18.04 90.31 TC 64 17.87 90.43 4 4 329
1887 NI BB 1887-05-24 00:00:00 TS 18.11 90.26 352 352 _________OP___ -1 18.20 90.20 TC 64 18.03 90.33 4 4 324
1887 NI BB 03:00:00 TS 18.30 90.11 352 347 _________PO___ -1 18.39 90.02 TC 64 18.20 90.20 4 5 319
1887 NI BB 06:00:00 TS 18.49 89.92 356 330 _________OP___ -1 18.60 89.80 TC 64 18.39 90.04 4 5 318
1887 NI BB 09:00:00 TS 18.69 89.73 330 304 _________PP___ -1 18.80 89.61 TC 64 18.58 89.84 4 6 317
1887 NI BB 12:00:00 TS 18.90 89.52 304 280 _________OP___ -1 19.00 89.40 TC 64 18.79 89.63 4 6 314
1887 NI BB 15:00:00 TS 19.10 89.28 280 257 _________PO___ -1 19.20 89.16 TC 64 19.00 89.40 4 6 311
1887 NI BB 18:00:00 TS 19.30 89.03 257 230 _________OP___ -1 19.40 88.90 TC 64 19.20 89.16 4 6 310
1887 NI BB 21:00:00 TS 19.50 88.78 230 192 _________PP___ -1 19.60 88.65 TC 64 19.39 88.91 4 6 310
1887 NI BB 1887-05-25 00:00:00 TS 19.70 88.53 192 162 _________OP___ -1 19.80 88.40 TC 64 19.59 88.66 4 6 310
1887 NI BB 03:00:00 TS 19.90 88.27 162 123 _________PO___ -1 19.99 88.15 TC 64 19.80 88.40 4 6 311
1887 NI BB 06:00:00 TS 20.11 88.02 123 94 _________OP___ -1 20.20 87.90 TC 64 20.02 88.15 4 7 314
1887 NI BB 09:00:00 TS 20.35 87.77 94 53 _________PP___ -1 20.45 87.65 TC 64 20.24 87.90 4 7 316
1887 NI BB 12:00:00 TS 20.59 87.52 53 31 _________OP___ -1 20.70 87.40 TC 64 20.47 87.65 4 7 314
1887 NI BB 15:00:00 TS 20.80 87.27 31 15 _________PO___ -1 20.90 87.15 TC 56 20.70 87.40 4 6 312
1887 NI BB 18:00:00 TS 21.01 87.02 15 0 _________OP___ -1 21.10 86.90 TC 49 20.92 87.15 4 6 313
1887 NI BB 21:00:00 TS 21.24 86.77 0 0 _________PP___ -1 21.34 86.65 TC 41 21.13 86.89 4 7 315
1887 NI BB 1887-05-26 00:00:00 TS 21.48 86.52 0 0 _________OP___ -1 21.60 86.40 TC 34 21.36 86.64 4 7 316
1887 NI BB 03:00:00 TS 21.72 86.27 0 0 _________PO___ -1 21.84 86.14 TC 33 21.60 86.40 2 7 317
1887 NI BB 06:00:00 TS 21.97 86.02 0 0 _________OP___ -1 22.10 85.90 TC 32 21.84 86.14 2 7 319
1887 NI BB 09:00:00 TS 22.25 85.79 0 0 _________PP___ -1 22.38 85.68 TC 31 22.11 85.90 2 7 325
1887 NI BB 12:00:00 TS 22.54 85.59 0 0 _________OP___ -1 22.70 85.50 TC 30 22.39 85.68 2 7 333
1887 NI BB 15:00:00 TS 22.87 85.44 0 0 _________PO___ -1 23.03 85.38 TC 30 22.70 85.50 1 7 342
1887 NI BB 18:00:00 TS 23.25 85.33 0 0 _________OP___ -1 23.40 85.30 TC 30 23.09 85.37 1 8 349
1887 NI BB 21:00:00 TS 23.67 85.26 0 0 _________PP___ -1 23.84 85.24 TC 30 23.51 85.28 1 8 352
1887 NI BB 1887-05-27 00:00:00 TS 24.05 85.21 0 0 _________OP___ -1 24.20 85.20 TC 30 23.89 85.23 1 6 355
1887 NI BB 03:00:00 TS 24.28 85.20 0 0 _________PO___ -1 24.35 85.19 TC 30 24.20 85.20 1 3 358
1887 NI BB 06:00:00 TS 24.38 85.19 0 0 _________OP___ -1 24.40 85.20 TC 30 24.36 85.18 1 2 0
1887 NI BB 09:00:00 TS 24.44 85.19 0 0 _________PP___ -1 24.45 85.20 TC 30 24.44 85.18 1 1 0
1887 NI BB 12:00:00 TS 24.49 85.20 0 0 _________OP___ -1 24.50 85.20 TC 30 24.47 85.19 1 1 0
1887 NI BB 15:00:00 TS 24.55 85.20 0 0 _________PO___ -1 24.60 85.21 TC 30 24.50 85.20 1 1 0
1887 NI BB 18:00:00 TS 24.61 85.19 0 0 _________OP___ -1 24.70 85.20 TC 30 24.55 85.19 1 1 345
1887 NI BB 21:00:00 TS 24.68 85.16 0 0 _________PP___ -1 24.76 85.16 TC 30 24.62 85.17 1 1 330
1887 NI BB 1887-05-28 00:00:00 TS 24.74 85.12 0 0 _________OP___ -1 24.80 85.10 TC 30 24.71 85.14 1 1 334
1887 NI BB 03:00:00 NR 24.80 85.10 0 __________O___ -1 TC 24.80 85.10 1 1 0